Terminal Aerodrome Forecast
Issued by NWS

Home | Current Version | Previous Version | Text Only | Print | Product List | Glossary On
Versions: 1 2 3 4 5 6 7 8 9 10 11 12 13 14 15 16 17 18 19 20 21 22 23 24 25
808
FTUS45 KRIW 241124
TAFRKS
TAF
KRKS 241124Z 2412/2512 03010G15KT 2SM -SN SCT015 OVC025
     FM241300 08011KT 1 1/2SM -SN SCT008 OVC015
     FM242100 09006KT 5SM -SN SCT015 OVC025
     FM250300 13005KT P6SM -SN OVC025
     FM250900 25009KT 2SM BR SCT005 OVC015=

USA.gov is the U.S. government's official web portal to all federal, state and local government web resources and services.